sensor_id;sensor_type;location;lat;lon;timestamp;temperature;humidity
17845;DHT22;9047;53.486;10.218;2023-04-28T00:00:23;4.70;99.90
17845;DHT22;9047;53.486;10.218;2023-04-28T00:02:54;4.70;99.90
17845;DHT22;9047;53.486;10.218;2023-04-28T00:05:29;4.60;99.90
17845;DHT22;9047;53.486;10.218;2023-04-28T00:08:00;4.60;99.90
17845;DHT22;9047;53.486;10.218;2023-04-28T00:10:33;4.60;99.90
17845;DHT22;9047;53.486;10.218;2023-04-28T00:13:05;4.50;99.90
17845;DHT22;9047;53.486;10.218;2023-04-28T00:15:37;4.40;99.90
17845;DHT22;9047;53.486;10.218;2023-04-28T00:18:07;4.40;99.90
17845;DHT22;9047;53.486;10.218;2023-04-28T00:20:40;4.40;99.90
17845;DHT22;9047;53.486;10.218;2023-04-28T00:23:10;4.30;99.90
17845;DHT22;9047;53.486;10.218;2023-04-28T00:25:39;4.30;99.90
17845;DHT22;9047;53.486;10.218;2023-04-28T00:28:16;4.30;99.90
17845;DHT22;9047;53.486;10.218;2023-04-28T00:30:49;4.20;99.90
17845;DHT22;9047;53.486;10.218;2023-04-28T00:33:28;4.20;99.90
17845;DHT22;9047;53.486;10.218;2023-04-28T00:36:02;4.10;99.90
17845;DHT22;9047;53.486;10.218;2023-04-28T00:38:32;4.10;99.90
17845;DHT22;9047;53.486;10.218;2023-04-28T00:41:04;4.10;99.90
17845;DHT22;9047;53.486;10.218;2023-04-28T00:43:43;4.10;99.90
17845;DHT22;9047;53.486;10.218;2023-04-28T00:46:19;4.10;99.90
17845;DHT22;9047;53.486;10.218;2023-04-28T00:48:53;4.10;99.90
17845;DHT22;9047;53.486;10.218;2023-04-28T00:51:28;4.00;99.90
17845;DHT22;9047;53.486;10.218;2023-04-28T00:54:18;4.00;99.90
17845;DHT22;9047;53.486;10.218;2023-04-28T00:56:48;4.00;99.90
17845;DHT22;9047;53.486;10.218;2023-04-28T00:59:25;3.90;99.90
17845;DHT22;9047;53.486;10.218;2023-04-28T01:01:58;3.90;99.90
17845;DHT22;9047;53.486;10.218;2023-04-28T01:04:43;3.90;99.90
17845;DHT22;9047;53.486;10.218;2023-04-28T01:07:11;3.80;99.90
17845;DHT22;9047;53.486;10.218;2023-04-28T01:09:39;3.80;99.90
17845;DHT22;9047;53.486;10.218;2023-04-28T01:12:16;3.80;99.90
17845;DHT22;9047;53.486;10.218;2023-04-28T01:14:49;3.80;99.90
17845;DHT22;9047;53.486;10.218;2023-04-28T01:17:21;3.80;99.90
17845;DHT22;9047;53.486;10.218;2023-04-28T01:19:56;3.70;99.90
17845;DHT22;9047;53.486;10.218;2023-04-28T01:22:27;3.70;99.90
17845;DHT22;9047;53.486;10.218;2023-04-28T01:24:58;3.70;99.90
17845;DHT22;9047;53.486;10.218;2023-04-28T01:27:37;3.70;99.90
17845;DHT22;9047;53.486;10.218;2023-04-28T01:30:10;3.70;99.90
17845;DHT22;9047;53.486;10.218;2023-04-28T01:32:46;3.70;99.90
17845;DHT22;9047;53.486;10.218;2023-04-28T01:35:14;3.70;99.90
17845;DHT22;9047;53.486;10.218;2023-04-28T01:37:52;3.70;99.90
17845;DHT22;9047;53.486;10.218;2023-04-28T01:40:40;3.80;99.90
17845;DHT22;9047;53.486;10.218;2023-04-28T01:43:13;3.80;99.90
17845;DHT22;9047;53.486;10.218;2023-04-28T01:45:55;3.80;99.90
17845;DHT22;9047;53.486;10.218;2023-04-28T01:48:28;3.90;99.90
17845;DHT22;9047;53.486;10.218;2023-04-28T01:50:57;3.90;99.90
17845;DHT22;9047;53.486;10.218;2023-04-28T01:53:33;3.90;99.90
17845;DHT22;9047;53.486;10.218;2023-04-28T01:56:04;4.00;99.90
17845;DHT22;9047;53.486;10.218;2023-04-28T01:58:32;4.00;99.90
17845;DHT22;9047;53.486;10.218;2023-04-28T02:01:26;4.00;99.90
17845;DHT22;9047;53.486;10.218;2023-04-28T02:03:56;4.10;99.90
17845;DHT22;9047;53.486;10.218;2023-04-28T02:06:35;4.10;99.90
17845;DHT22;9047;53.486;10.218;2023-04-28T02:09:10;4.10;99.90
17845;DHT22;9047;53.486;10.218;2023-04-28T02:11:52;4.10;99.90
17845;DHT22;9047;53.486;10.218;2023-04-28T02:17:20;4.10;99.90
17845;DHT22;9047;53.486;10.218;2023-04-28T02:19:56;4.10;99.90
17845;DHT22;9047;53.486;10.218;2023-04-28T02:22:28;4.10;99.90
17845;DHT22;9047;53.486;10.218;2023-04-28T02:24:58;4.00;99.90
17845;DHT22;9047;53.486;10.218;2023-04-28T02:27:36;4.00;99.90
17845;DHT22;9047;53.486;10.218;2023-04-28T02:30:23;4.00;99.90
17845;DHT22;9047;53.486;10.218;2023-04-28T02:33:21;3.90;99.90
17845;DHT22;9047;53.486;10.218;2023-04-28T02:35:57;3.90;99.90
17845;DHT22;9047;53.486;10.218;2023-04-28T02:38:31;3.90;99.90
17845;DHT22;9047;53.486;10.218;2023-04-28T02:41:03;3.90;99.90
17845;DHT22;9047;53.486;10.218;2023-04-28T02:43:45;3.90;99.90
17845;DHT22;9047;53.486;10.218;2023-04-28T02:46:15;3.80;99.90
17845;DHT22;9047;53.486;10.218;2023-04-28T02:48:48;3.80;99.90
17845;DHT22;9047;53.486;10.218;2023-04-28T02:51:16;3.80;99.90
17845;DHT22;9047;53.486;10.218;2023-04-28T02:53:47;3.80;99.90
17845;DHT22;9047;53.486;10.218;2023-04-28T02:56:15;3.80;99.90
17845;DHT22;9047;53.486;10.218;2023-04-28T02:58:47;3.80;99.90
17845;DHT22;9047;53.486;10.218;2023-04-28T03:01:16;3.80;99.90
17845;DHT22;9047;53.486;10.218;2023-04-28T03:04:01;3.70;99.90
17845;DHT22;9047;53.486;10.218;2023-04-28T03:06:33;3.70;99.90
17845;DHT22;9047;53.486;10.218;2023-04-28T03:09:03;3.70;99.90
17845;DHT22;9047;53.486;10.218;2023-04-28T03:11:43;3.70;99.90
17845;DHT22;9047;53.486;10.218;2023-04-28T03:14:16;3.60;99.90
17845;DHT22;9047;53.486;10.218;2023-04-28T03:16:44;3.60;99.90
17845;DHT22;9047;53.486;10.218;2023-04-28T03:19:20;3.60;99.90
17845;DHT22;9047;53.486;10.218;2023-04-28T03:21:52;3.60;99.90
17845;DHT22;9047;53.486;10.218;2023-04-28T03:24:21;3.50;99.90
17845;DHT22;9047;53.486;10.218;2023-04-28T03:26:51;3.50;99.90
17845;DHT22;9047;53.486;10.218;2023-04-28T03:29:24;3.50;99.90
17845;DHT22;9047;53.486;10.218;2023-04-28T03:31:56;3.50;99.90
17845;DHT22;9047;53.486;10.218;2023-04-28T03:34:23;3.50;99.90
17845;DHT22;9047;53.486;10.218;2023-04-28T03:36:53;3.50;99.90
17845;DHT22;9047;53.486;10.218;2023-04-28T03:39:39;3.50;99.90
17845;DHT22;9047;53.486;10.218;2023-04-28T03:42:11;3.50;99.90
17845;DHT22;9047;53.486;10.218;2023-04-28T03:44:50;3.60;99.90
17845;DHT22;9047;53.486;10.218;2023-04-28T03:47:17;3.60;99.90
17845;DHT22;9047;53.486;10.218;2023-04-28T03:49:46;3.50;99.90
17845;DHT22;9047;53.486;10.218;2023-04-28T03:52:14;3.50;99.90
17845;DHT22;9047;53.486;10.218;2023-04-28T03:54:43;3.50;99.90
17845;DHT22;9047;53.486;10.218;2023-04-28T03:57:17;3.50;99.90
17845;DHT22;9047;53.486;10.218;2023-04-28T03:59:51;3.40;99.90
17845;DHT22;9047;53.486;10.218;2023-04-28T04:02:20;3.50;99.90
17845;DHT22;9047;53.486;10.218;2023-04-28T04:04:49;3.60;99.90
17845;DHT22;9047;53.486;10.218;2023-04-28T04:07:20;3.60;99.90
17845;DHT22;9047;53.486;10.218;2023-04-28T04:10:03;3.70;99.90
17845;DHT22;9047;53.486;10.218;2023-04-28T04:12:31;3.60;99.90
17845;DHT22;9047;53.486;10.218;2023-04-28T04:15:11;3.70;99.90
17845;DHT22;9047;53.486;10.218;2023-04-28T04:17:38;3.70;99.90
17845;DHT22;9047;53.486;10.218;2023-04-28T04:20:07;3.80;99.90
17845;DHT22;9047;53.486;10.218;2023-04-28T04:22:35;3.80;99.90
17845;DHT22;9047;53.486;10.218;2023-04-28T04:25:05;3.90;99.90
17845;DHT22;9047;53.486;10.218;2023-04-28T04:27:50;3.90;99.90
17845;DHT22;9047;53.486;10.218;2023-04-28T04:30:26;4.00;99.90
17845;DHT22;9047;53.486;10.218;2023-04-28T04:32:55;4.10;99.90
17845;DHT22;9047;53.486;10.218;2023-04-28T04:35:23;4.10;99.90
17845;DHT22;9047;53.486;10.218;2023-04-28T04:37:53;4.10;99.90
17845;DHT22;9047;53.486;10.218;2023-04-28T04:40:28;4.20;99.90
17845;DHT22;9047;53.486;10.218;2023-04-28T04:42:58;4.30;99.90
17845;DHT22;9047;53.486;10.218;2023-04-28T04:45:36;4.30;99.90
17845;DHT22;9047;53.486;10.218;2023-04-28T04:48:07;4.40;99.90
17845;DHT22;9047;53.486;10.218;2023-04-28T04:50:37;4.40;99.90
17845;DHT22;9047;53.486;10.218;2023-04-28T04:53:05;4.50;99.90
17845;DHT22;9047;53.486;10.218;2023-04-28T04:55:33;4.50;99.90
17845;DHT22;9047;53.486;10.218;2023-04-28T04:58:04;4.70;99.90
17845;DHT22;9047;53.486;10.218;2023-04-28T05:00:40;4.70;99.90
17845;DHT22;9047;53.486;10.218;2023-04-28T05:03:19;4.80;99.90
17845;DHT22;9047;53.486;10.218;2023-04-28T05:05:47;4.90;99.90
17845;DHT22;9047;53.486;10.218;2023-04-28T05:08:15;5.00;99.90
17845;DHT22;9047;53.486;10.218;2023-04-28T05:10:44;5.00;99.90
17845;DHT22;9047;53.486;10.218;2023-04-28T05:13:13;5.00;99.90
17845;DHT22;9047;53.486;10.218;2023-04-28T05:15:44;5.10;99.90
17845;DHT22;9047;53.486;10.218;2023-04-28T05:18:19;5.10;99.90
17845;DHT22;9047;53.486;10.218;2023-04-28T05:21:06;5.20;99.90
17845;DHT22;9047;53.486;10.218;2023-04-28T05:24:01;5.30;99.90
17845;DHT22;9047;53.486;10.218;2023-04-28T05:26:29;5.40;99.90
17845;DHT22;9047;53.486;10.218;2023-04-28T05:28:57;5.40;99.90
17845;DHT22;9047;53.486;10.218;2023-04-28T05:31:28;5.50;99.90
17845;DHT22;9047;53.486;10.218;2023-04-28T05:34:01;5.60;99.90
17845;DHT22;9047;53.486;10.218;2023-04-28T05:36:38;5.70;99.90
17845;DHT22;9047;53.486;10.218;2023-04-28T05:39:07;5.80;99.90
17845;DHT22;9047;53.486;10.218;2023-04-28T05:41:41;5.90;99.90
17845;DHT22;9047;53.486;10.218;2023-04-28T05:44:12;6.00;99.90
17845;DHT22;9047;53.486;10.218;2023-04-28T05:46:47;6.10;99.90
17845;DHT22;9047;53.486;10.218;2023-04-28T05:49:19;6.20;99.90
17845;DHT22;9047;53.486;10.218;2023-04-28T05:51:48;6.30;99.90
17845;DHT22;9047;53.486;10.218;2023-04-28T05:54:16;6.50;99.90
17845;DHT22;9047;53.486;10.218;2023-04-28T05:56:44;6.60;99.90
17845;DHT22;9047;53.486;10.218;2023-04-28T05:59:13;6.70;99.90
17845;DHT22;9047;53.486;10.218;2023-04-28T06:02:03;6.90;99.90
17845;DHT22;9047;53.486;10.218;2023-04-28T06:04:31;7.00;99.90
17845;DHT22;9047;53.486;10.218;2023-04-28T06:06:59;7.20;99.90
17845;DHT22;9047;53.486;10.218;2023-04-28T06:09:30;7.40;99.90
17845;DHT22;9047;53.486;10.218;2023-04-28T06:12:07;7.70;99.90
17845;DHT22;9047;53.486;10.218;2023-04-28T06:14:39;8.00;99.90
17845;DHT22;9047;53.486;10.218;2023-04-28T06:17:21;8.40;99.90
17845;DHT22;9047;53.486;10.218;2023-04-28T06:19:50;8.70;99.90
17845;DHT22;9047;53.486;10.218;2023-04-28T06:22:22;9.20;99.90
17845;DHT22;9047;53.486;10.218;2023-04-28T06:24:51;9.70;99.90
17845;DHT22;9047;53.486;10.218;2023-04-28T06:27:30;10.50;99.90
17845;DHT22;9047;53.486;10.218;2023-04-28T06:30:12;11.10;99.90
17845;DHT22;9047;53.486;10.218;2023-04-28T06:32:47;11.70;99.90
17845;DHT22;9047;53.486;10.218;2023-04-28T06:35:20;12.20;99.90
17845;DHT22;9047;53.486;10.218;2023-04-28T06:37:52;12.70;99.90
17845;DHT22;9047;53.486;10.218;2023-04-28T06:40:20;13.00;99.90
17845;DHT22;9047;53.486;10.218;2023-04-28T06:42:50;13.40;99.90
17845;DHT22;9047;53.486;10.218;2023-04-28T06:45:18;13.60;99.90
17845;DHT22;9047;53.486;10.218;2023-04-28T06:47:55;13.90;99.90
17845;DHT22;9047;53.486;10.218;2023-04-28T06:50:26;14.40;99.90
17845;DHT22;9047;53.486;10.218;2023-04-28T06:52:54;14.80;99.50
17845;DHT22;9047;53.486;10.218;2023-04-28T06:55:25;15.10;99.60
17845;DHT22;9047;53.486;10.218;2023-04-28T06:58:00;15.40;98.70
17845;DHT22;9047;53.486;10.218;2023-04-28T07:00:33;15.60;98.00
17845;DHT22;9047;53.486;10.218;2023-04-28T07:03:14;15.90;96.90
17845;DHT22;9047;53.486;10.218;2023-04-28T07:05:44;15.90;95.90
17845;DHT22;9047;53.486;10.218;2023-04-28T07:08:23;15.70;95.40
17845;DHT22;9047;53.486;10.218;2023-04-28T07:10:54;15.60;95.30
17845;DHT22;9047;53.486;10.218;2023-04-28T07:13:22;15.60;94.80
17845;DHT22;9047;53.486;10.218;2023-04-28T07:15:51;15.50;95.40
17845;DHT22;9047;53.486;10.218;2023-04-28T07:18:34;15.40;94.70
17845;DHT22;9047;53.486;10.218;2023-04-28T07:21:01;15.30;95.50
17845;DHT22;9047;53.486;10.218;2023-04-28T07:23:35;15.30;95.00
17845;DHT22;9047;53.486;10.218;2023-04-28T07:26:17;15.40;95.60
17845;DHT22;9047;53.486;10.218;2023-04-28T07:28:47;15.70;94.60
17845;DHT22;9047;53.486;10.218;2023-04-28T07:31:20;16.20;94.40
17845;DHT22;9047;53.486;10.218;2023-04-28T07:33:49;16.50;93.20
17845;DHT22;9047;53.486;10.218;2023-04-28T07:36:20;16.80;93.50
17845;DHT22;9047;53.486;10.218;2023-04-28T07:39:00;17.10;92.30
17845;DHT22;9047;53.486;10.218;2023-04-28T07:41:35;17.20;91.30
17845;DHT22;9047;53.486;10.218;2023-04-28T07:44:09;17.00;92.20
17845;DHT22;9047;53.486;10.218;2023-04-28T07:46:39;17.00;91.90
17845;DHT22;9047;53.486;10.218;2023-04-28T07:49:18;17.10;91.50
17845;DHT22;9047;53.486;10.218;2023-04-28T07:54:41;17.20;91.40
17845;DHT22;9047;53.486;10.218;2023-04-28T07:57:14;17.10;91.30
17845;DHT22;9047;53.486;10.218;2023-04-28T08:00:06;16.90;91.20
17845;DHT22;9047;53.486;10.218;2023-04-28T08:02:53;16.60;90.80
17845;DHT22;9047;53.486;10.218;2023-04-28T08:05:25;16.30;91.10
17845;DHT22;9047;53.486;10.218;2023-04-28T08:08:07;15.90;91.40
17845;DHT22;9047;53.486;10.218;2023-04-28T08:10:38;15.80;92.30
17845;DHT22;9047;53.486;10.218;2023-04-28T08:13:06;15.60;92.00
17845;DHT22;9047;53.486;10.218;2023-04-28T08:15:36;15.40;91.70
17845;DHT22;9047;53.486;10.218;2023-04-28T08:18:03;15.20;92.00
17845;DHT22;9047;53.486;10.218;2023-04-28T08:20:41;15.10;92.00
17845;DHT22;9047;53.486;10.218;2023-04-28T08:23:11;15.00;92.10
17845;DHT22;9047;53.486;10.218;2023-04-28T08:25:40;14.90;92.70
17845;DHT22;9047;53.486;10.218;2023-04-28T08:28:08;14.80;93.20
17845;DHT22;9047;53.486;10.218;2023-04-28T08:30:43;14.80;92.60
17845;DHT22;9047;53.486;10.218;2023-04-28T08:33:12;14.80;92.50
17845;DHT22;9047;53.486;10.218;2023-04-28T08:35:44;14.80;92.90
17845;DHT22;9047;53.486;10.218;2023-04-28T08:38:14;14.90;92.80
17845;DHT22;9047;53.486;10.218;2023-04-28T08:40:43;15.00;93.00
17845;DHT22;9047;53.486;10.218;2023-04-28T08:43:20;15.00;92.30
17845;DHT22;9047;53.486;10.218;2023-04-28T08:45:49;15.10;92.50
17845;DHT22;9047;53.486;10.218;2023-04-28T08:48:18;15.20;92.00
17845;DHT22;9047;53.486;10.218;2023-04-28T08:50:50;15.20;92.00
17845;DHT22;9047;53.486;10.218;2023-04-28T08:53:26;15.20;92.90
17845;DHT22;9047;53.486;10.218;2023-04-28T08:55:56;15.30;92.50
17845;DHT22;9047;53.486;10.218;2023-04-28T08:58:25;15.40;92.60
17845;DHT22;9047;53.486;10.218;2023-04-28T09:00:53;15.50;92.30
17845;DHT22;9047;53.486;10.218;2023-04-28T09:03:29;15.60;92.90
17845;DHT22;9047;53.486;10.218;2023-04-28T09:06:01;15.70;93.10
17845;DHT22;9047;53.486;10.218;2023-04-28T09:08:51;15.80;93.10
17845;DHT22;9047;53.486;10.218;2023-04-28T09:11:19;15.90;92.90
17845;DHT22;9047;53.486;10.218;2023-04-28T09:14:11;16.00;92.90
17845;DHT22;9047;53.486;10.218;2023-04-28T09:16:50;15.80;92.40
17845;DHT22;9047;53.486;10.218;2023-04-28T09:19:18;16.00;93.60
17845;DHT22;9047;53.486;10.218;2023-04-28T09:21:51;16.10;92.50
17845;DHT22;9047;53.486;10.218;2023-04-28T09:24:28;16.20;92.70
17845;DHT22;9047;53.486;10.218;2023-04-28T09:26:57;16.30;92.90
17845;DHT22;9047;53.486;10.218;2023-04-28T09:29:35;16.50;92.90
17845;DHT22;9047;53.486;10.218;2023-04-28T09:32:15;16.70;92.90
17845;DHT22;9047;53.486;10.218;2023-04-28T09:34:48;16.90;92.70
17845;DHT22;9047;53.486;10.218;2023-04-28T09:37:24;17.00;92.20
17845;DHT22;9047;53.486;10.218;2023-04-28T09:40:02;17.10;92.00
17845;DHT22;9047;53.486;10.218;2023-04-28T09:42:35;17.10;91.40
17845;DHT22;9047;53.486;10.218;2023-04-28T09:45:13;17.10;91.20
17845;DHT22;9047;53.486;10.218;2023-04-28T09:47:42;17.10;91.10
17845;DHT22;9047;53.486;10.218;2023-04-28T09:50:16;17.10;91.80
17845;DHT22;9047;53.486;10.218;2023-04-28T09:53:01;17.00;91.80
17845;DHT22;9047;53.486;10.218;2023-04-28T09:55:32;17.10;91.90
17845;DHT22;9047;53.486;10.218;2023-04-28T09:58:08;17.10;91.90
17845;DHT22;9047;53.486;10.218;2023-04-28T10:00:44;17.30;91.50
17845;DHT22;9047;53.486;10.218;2023-04-28T10:03:13;17.30;91.00
17845;DHT22;9047;53.486;10.218;2023-04-28T10:05:48;17.40;90.90
17845;DHT22;9047;53.486;10.218;2023-04-28T10:08:19;17.30;91.10
17845;DHT22;9047;53.486;10.218;2023-04-28T10:10:51;17.30;90.50
17845;DHT22;9047;53.486;10.218;2023-04-28T10:13:22;17.30;90.40
17845;DHT22;9047;53.486;10.218;2023-04-28T10:15:52;17.30;90.60
17845;DHT22;9047;53.486;10.218;2023-04-28T10:18:24;17.30;90.40
17845;DHT22;9047;53.486;10.218;2023-04-28T10:20:57;17.40;91.00
17845;DHT22;9047;53.486;10.218;2023-04-28T10:24:02;17.40;90.70
17845;DHT22;9047;53.486;10.218;2023-04-28T10:27:10;17.60;90.40
17845;DHT22;9047;53.486;10.218;2023-04-28T10:29:40;17.80;90.20
17845;DHT22;9047;53.486;10.218;2023-04-28T10:32:22;18.00;90.20
17845;DHT22;9047;53.486;10.218;2023-04-28T10:38:24;18.30;89.40
17845;DHT22;9047;53.486;10.218;2023-04-28T10:41:37;18.40;89.90
17845;DHT22;9047;53.486;10.218;2023-04-28T10:44:45;18.50;88.30
17845;DHT22;9047;53.486;10.218;2023-04-28T10:47:38;18.70;88.40
17845;DHT22;9047;53.486;10.218;2023-04-28T10:50:41;18.80;87.50
17845;DHT22;9047;53.486;10.218;2023-04-28T10:57:25;18.70;87.80
17845;DHT22;9047;53.486;10.218;2023-04-28T11:00:29;18.60;87.60
17845;DHT22;9047;53.486;10.218;2023-04-28T11:03:42;18.70;88.00
17845;DHT22;9047;53.486;10.218;2023-04-28T11:06:31;18.60;88.10
17845;DHT22;9047;53.486;10.218;2023-04-28T11:12:20;18.70;88.40
17845;DHT22;9047;53.486;10.218;2023-04-28T11:15:11;18.70;89.50
17845;DHT22;9047;53.486;10.218;2023-04-28T11:18:07;18.90;88.50
17845;DHT22;9047;53.486;10.218;2023-04-28T11:20:47;18.90;87.50
17845;DHT22;9047;53.486;10.218;2023-04-28T11:23:22;18.90;87.20
17845;DHT22;9047;53.486;10.218;2023-04-28T11:26:02;18.80;87.40
17845;DHT22;9047;53.486;10.218;2023-04-28T11:28:54;18.70;88.30
17845;DHT22;9047;53.486;10.218;2023-04-28T11:31:33;18.70;87.70
17845;DHT22;9047;53.486;10.218;2023-04-28T11:34:18;18.80;87.60
17845;DHT22;9047;53.486;10.218;2023-04-28T11:37:01;18.80;86.90
17845;DHT22;9047;53.486;10.218;2023-04-28T11:39:31;18.80;87.30
17845;DHT22;9047;53.486;10.218;2023-04-28T11:42:10;18.70;87.10
17845;DHT22;9047;53.486;10.218;2023-04-28T11:44:39;18.60;86.70
17845;DHT22;9047;53.486;10.218;2023-04-28T11:47:39;18.60;86.80
17845;DHT22;9047;53.486;10.218;2023-04-28T11:53:39;18.60;87.30
17845;DHT22;9047;53.486;10.218;2023-04-28T11:56:20;18.60;88.30
17845;DHT22;9047;53.486;10.218;2023-04-28T11:59:00;18.70;88.60
17845;DHT22;9047;53.486;10.218;2023-04-28T12:01:32;18.70;88.30
17845;DHT22;9047;53.486;10.218;2023-04-28T12:04:30;18.80;88.10
17845;DHT22;9047;53.486;10.218;2023-04-28T12:07:04;18.70;86.50
17845;DHT22;9047;53.486;10.218;2023-04-28T12:09:33;18.60;87.20
17845;DHT22;9047;53.486;10.218;2023-04-28T12:12:03;18.50;87.90
17845;DHT22;9047;53.486;10.218;2023-04-28T12:15:14;18.50;88.80
17845;DHT22;9047;53.486;10.218;2023-04-28T12:18:12;18.60;87.30
17845;DHT22;9047;53.486;10.218;2023-04-28T12:20:51;18.60;88.30
17845;DHT22;9047;53.486;10.218;2023-04-28T12:23:29;18.60;89.20
17845;DHT22;9047;53.486;10.218;2023-04-28T12:26:08;18.70;88.60
17845;DHT22;9047;53.486;10.218;2023-04-28T12:28:42;18.80;87.20
17845;DHT22;9047;53.486;10.218;2023-04-28T12:31:17;18.80;87.40
17845;DHT22;9047;53.486;10.218;2023-04-28T12:33:50;18.80;88.70
17845;DHT22;9047;53.486;10.218;2023-04-28T12:36:24;18.80;88.10
17845;DHT22;9047;53.486;10.218;2023-04-28T12:39:25;18.80;88.00
17845;DHT22;9047;53.486;10.218;2023-04-28T12:41:55;18.90;87.40
17845;DHT22;9047;53.486;10.218;2023-04-28T12:44:24;18.90;87.50
17845;DHT22;9047;53.486;10.218;2023-04-28T12:46:53;18.70;88.40
17845;DHT22;9047;53.486;10.218;2023-04-28T12:49:26;18.50;88.10
17845;DHT22;9047;53.486;10.218;2023-04-28T12:52:02;18.40;88.10
17845;DHT22;9047;53.486;10.218;2023-04-28T12:54:34;18.20;89.30
17845;DHT22;9047;53.486;10.218;2023-04-28T12:57:07;18.10;89.40
17845;DHT22;9047;53.486;10.218;2023-04-28T12:59:41;17.90;89.90
17845;DHT22;9047;53.486;10.218;2023-04-28T13:02:10;17.70;90.30
17845;DHT22;9047;53.486;10.218;2023-04-28T13:04:47;17.50;90.90
17845;DHT22;9047;53.486;10.218;2023-04-28T13:07:35;17.40;90.50
17845;DHT22;9047;53.486;10.218;2023-04-28T13:10:12;17.40;90.50
17845;DHT22;9047;53.486;10.218;2023-04-28T13:12:50;17.30;91.00
17845;DHT22;9047;53.486;10.218;2023-04-28T13:15:24;17.40;91.30
17845;DHT22;9047;53.486;10.218;2023-04-28T13:17:59;17.50;91.00
17845;DHT22;9047;53.486;10.218;2023-04-28T13:20:41;17.50;90.80
17845;DHT22;9047;53.486;10.218;2023-04-28T13:23:26;17.50;91.10
17845;DHT22;9047;53.486;10.218;2023-04-28T13:26:06;17.40;91.00
17845;DHT22;9047;53.486;10.218;2023-04-28T13:28:36;17.30;91.90
17845;DHT22;9047;53.486;10.218;2023-04-28T13:31:21;17.20;91.80
17845;DHT22;9047;53.486;10.218;2023-04-28T13:34:11;17.10;91.50
17845;DHT22;9047;53.486;10.218;2023-04-28T13:36:52;17.00;91.80
17845;DHT22;9047;53.486;10.218;2023-04-28T13:39:31;17.00;91.60
17845;DHT22;9047;53.486;10.218;2023-04-28T13:42:00;16.80;91.70
17845;DHT22;9047;53.486;10.218;2023-04-28T13:44:28;16.70;91.90
17845;DHT22;9047;53.486;10.218;2023-04-28T13:47:20;16.50;91.80
17845;DHT22;9047;53.486;10.218;2023-04-28T13:49:56;16.40;92.10
17845;DHT22;9047;53.486;10.218;2023-04-28T13:52:26;16.30;92.40
17845;DHT22;9047;53.486;10.218;2023-04-28T13:54:57;16.30;92.40
17845;DHT22;9047;53.486;10.218;2023-04-28T14:00:28;16.20;92.70
17845;DHT22;9047;53.486;10.218;2023-04-28T14:03:20;16.10;93.60
17845;DHT22;9047;53.486;10.218;2023-04-28T14:08:53;16.20;93.50
17845;DHT22;9047;53.486;10.218;2023-04-28T14:11:35;16.30;93.30
17845;DHT22;9047;53.486;10.218;2023-04-28T14:14:05;16.30;93.80
17845;DHT22;9047;53.486;10.218;2023-04-28T14:16:42;16.40;93.50
17845;DHT22;9047;53.486;10.218;2023-04-28T14:19:18;16.40;93.60
17845;DHT22;9047;53.486;10.218;2023-04-28T14:21:50;16.40;93.60
17845;DHT22;9047;53.486;10.218;2023-04-28T14:24:30;16.50;93.60
17845;DHT22;9047;53.486;10.218;2023-04-28T14:27:02;16.60;93.40
17845;DHT22;9047;53.486;10.218;2023-04-28T14:29:34;16.60;93.40
17845;DHT22;9047;53.486;10.218;2023-04-28T14:32:13;16.60;93.60
17845;DHT22;9047;53.486;10.218;2023-04-28T14:34:49;16.50;93.90
17845;DHT22;9047;53.486;10.218;2023-04-28T14:37:40;16.50;94.00
17845;DHT22;9047;53.486;10.218;2023-04-28T14:40:21;16.40;94.10
17845;DHT22;9047;53.486;10.218;2023-04-28T14:42:59;16.30;94.00
17845;DHT22;9047;53.486;10.218;2023-04-28T14:45:31;16.30;93.90
17845;DHT22;9047;53.486;10.218;2023-04-28T14:48:01;16.20;93.80
17845;DHT22;9047;53.486;10.218;2023-04-28T14:50:36;16.20;94.00
17845;DHT22;9047;53.486;10.218;2023-04-28T14:53:09;16.10;93.90
17845;DHT22;9047;53.486;10.218;2023-04-28T14:55:41;16.00;94.20
17845;DHT22;9047;53.486;10.218;2023-04-28T14:58:34;15.90;94.60
17845;DHT22;9047;53.486;10.218;2023-04-28T15:01:03;15.80;95.00
17845;DHT22;9047;53.486;10.218;2023-04-28T15:03:30;15.60;95.30
17845;DHT22;9047;53.486;10.218;2023-04-28T15:05:57;15.60;94.90
17845;DHT22;9047;53.486;10.218;2023-04-28T15:08:25;15.50;95.40
17845;DHT22;9047;53.486;10.218;2023-04-28T15:10:51;15.40;95.70
17845;DHT22;9047;53.486;10.218;2023-04-28T15:13:22;15.30;95.40
17845;DHT22;9047;53.486;10.218;2023-04-28T15:15:49;15.30;95.90
17845;DHT22;9047;53.486;10.218;2023-04-28T15:18:19;15.20;96.40
17845;DHT22;9047;53.486;10.218;2023-04-28T15:20:46;15.20;96.60
17845;DHT22;9047;53.486;10.218;2023-04-28T15:23:13;15.10;96.30
17845;DHT22;9047;53.486;10.218;2023-04-28T15:25:40;15.10;96.30
17845;DHT22;9047;53.486;10.218;2023-04-28T15:28:07;15.00;96.70
17845;DHT22;9047;53.486;10.218;2023-04-28T15:30:35;15.00;96.40
17845;DHT22;9047;53.486;10.218;2023-04-28T15:33:03;14.90;96.60
17845;DHT22;9047;53.486;10.218;2023-04-28T15:35:31;14.80;96.60
17845;DHT22;9047;53.486;10.218;2023-04-28T15:37:59;14.90;96.60
17845;DHT22;9047;53.486;10.218;2023-04-28T15:40:26;14.80;96.60
17845;DHT22;9047;53.486;10.218;2023-04-28T15:42:56;14.90;96.50
17845;DHT22;9047;53.486;10.218;2023-04-28T15:45:23;14.90;96.70
17845;DHT22;9047;53.486;10.218;2023-04-28T15:47:51;14.80;96.80
17845;DHT22;9047;53.486;10.218;2023-04-28T15:50:19;14.90;97.30
17845;DHT22;9047;53.486;10.218;2023-04-28T15:52:47;14.80;97.30
17845;DHT22;9047;53.486;10.218;2023-04-28T15:55:16;14.80;96.90
17845;DHT22;9047;53.486;10.218;2023-04-28T15:57:45;14.80;97.10
17845;DHT22;9047;53.486;10.218;2023-04-28T16:00:13;14.80;97.70
17845;DHT22;9047;53.486;10.218;2023-04-28T16:02:45;14.80;97.80
17845;DHT22;9047;53.486;10.218;2023-04-28T16:05:14;14.80;97.50
17845;DHT22;9047;53.486;10.218;2023-04-28T16:07:45;14.80;97.70
17845;DHT22;9047;53.486;10.218;2023-04-28T16:10:15;14.70;97.90
17845;DHT22;9047;53.486;10.218;2023-04-28T16:12:45;14.80;97.80
17845;DHT22;9047;53.486;10.218;2023-04-28T16:15:24;14.70;98.00
17845;DHT22;9047;53.486;10.218;2023-04-28T16:17:52;14.80;98.20
17845;DHT22;9047;53.486;10.218;2023-04-28T16:20:22;14.80;98.60
17845;DHT22;9047;53.486;10.218;2023-04-28T16:22:53;14.80;98.40
17845;DHT22;9047;53.486;10.218;2023-04-28T16:25:22;14.80;98.50
17845;DHT22;9047;53.486;10.218;2023-04-28T16:27:53;14.90;98.60
17845;DHT22;9047;53.486;10.218;2023-04-28T16:30:21;14.90;98.70
17845;DHT22;9047;53.486;10.218;2023-04-28T16:32:48;14.90;98.60
17845;DHT22;9047;53.486;10.218;2023-04-28T16:35:17;14.90;98.90
17845;DHT22;9047;53.486;10.218;2023-04-28T16:37:47;14.80;99.20
17845;DHT22;9047;53.486;10.218;2023-04-28T16:40:14;14.80;99.00
17845;DHT22;9047;53.486;10.218;2023-04-28T16:42:41;14.70;99.80
17845;DHT22;9047;53.486;10.218;2023-04-28T16:45:10;14.50;99.90
17845;DHT22;9047;53.486;10.218;2023-04-28T16:47:37;14.40;99.90
17845;DHT22;9047;53.486;10.218;2023-04-28T16:50:08;14.20;99.90